createdAt,value
2018-11-06T00:01:42.926Z,34.57
2018-11-06T00:04:13.210Z,31.37
2018-11-06T00:06:42.684Z,30.87
2018-11-06T00:09:11.421Z,31.83
2018-11-06T00:11:39.997Z,30.17
2018-11-06T00:14:09.443Z,28.67
2018-11-06T00:16:39.398Z,30.43
2018-11-06T00:19:08.683Z,28.47
2018-11-06T00:21:37.422Z,28.70
2018-11-06T00:24:08.808Z,26.47
2018-11-06T00:27:08.672Z,25.67
2018-11-06T00:29:38.678Z,26.73
2018-11-06T00:35:40.965Z,28.10
2018-11-06T00:38:10.577Z,26.13
2018-11-06T00:40:40.884Z,28.53
2018-11-06T00:43:09.618Z,26.77
2018-11-06T00:45:39.036Z,26.43
2018-11-06T00:48:07.593Z,27.57
2018-11-06T00:50:37.059Z,26.00
2018-11-06T00:53:06.674Z,27.27
2018-11-06T00:55:36.833Z,23.37
2018-11-06T00:58:05.565Z,25.07
2018-11-06T01:00:34.235Z,31.10
2018-11-06T01:03:02.831Z,23.97
2018-11-06T01:05:31.431Z,25.13
2018-11-06T01:08:00.069Z,25.37
2018-11-06T01:10:28.656Z,25.60
2018-11-06T01:12:57.215Z,25.83
2018-11-06T01:15:25.769Z,23.23
2018-11-06T01:17:54.309Z,23.93
2018-11-06T01:20:22.867Z,23.07
2018-11-06T01:22:51.516Z,22.03
2018-11-06T01:25:20.177Z,21.83
2018-11-06T01:27:48.750Z,23.70
2018-11-06T01:30:18.823Z,21.77
2018-11-06T01:32:47.821Z,21.83
2018-11-06T01:35:16.872Z,22.97
2018-11-06T01:37:46.764Z,22.00
2018-11-06T01:40:17.872Z,22.43
2018-11-06T01:42:47.335Z,21.60
2018-11-06T01:45:16.819Z,20.93
2018-11-06T01:47:45.401Z,20.03
2018-11-06T01:50:15.244Z,18.97
2018-11-06T01:52:45.738Z,18.97
2018-11-06T01:55:14.428Z,20.63
2018-11-06T01:57:43.014Z,25.67
2018-11-06T02:00:14.321Z,23.30
2018-11-06T02:02:43.002Z,22.63
2018-11-06T02:05:12.958Z,21.93
2018-11-06T02:07:42.583Z,23.17
2018-11-06T02:10:13.100Z,24.60
2018-11-06T02:12:43.576Z,21.43
2018-11-06T02:15:12.342Z,23.10
2018-11-06T02:17:42.232Z,24.83
2018-11-06T02:20:12.763Z,29.13
2018-11-06T02:22:42.476Z,27.53
2018-11-06T02:25:11.690Z,26.03
2018-11-06T02:27:40.346Z,26.27
2018-11-06T02:30:11.266Z,24.10
2018-11-06T02:32:40.150Z,31.27
2018-11-06T02:35:08.788Z,24.43
2018-11-06T02:37:38.164Z,23.93
2018-11-06T02:40:07.586Z,23.77
2018-11-06T02:42:36.276Z,24.57
2018-11-06T02:45:05.269Z,25.13
2018-11-06T02:47:48.356Z,22.47
2018-11-06T02:50:16.955Z,24.07
2018-11-06T02:52:45.631Z,23.30
2018-11-06T02:55:14.481Z,22.80
2018-11-06T02:57:43.371Z,22.27
2018-11-06T03:00:14.624Z,20.73
2018-11-06T03:02:43.864Z,20.47
2018-11-06T03:05:12.573Z,20.03
2018-11-06T03:07:41.861Z,24.50
2018-11-06T03:10:27.035Z,22.87
2018-11-06T03:12:55.660Z,24.93
2018-11-06T03:15:24.374Z,23.10
2018-11-06T03:17:52.974Z,23.63
2018-11-06T03:20:21.595Z,24.90
2018-11-06T03:22:50.939Z,23.53
2018-11-06T03:25:19.588Z,24.43
2018-11-06T03:27:48.248Z,24.13
2018-11-06T03:30:16.934Z,23.67
2018-11-06T03:32:46.118Z,21.80
2018-11-06T03:35:15.459Z,20.53
2018-11-06T03:37:44.242Z,20.90
2018-11-06T03:40:13.266Z,20.93
2018-11-06T03:42:42.693Z,20.50
2018-11-06T03:45:12.233Z,20.93
2018-11-06T03:47:40.966Z,20.80
2018-11-06T03:50:11.274Z,21.87
2018-11-06T03:52:39.842Z,22.23
2018-11-06T03:55:09.661Z,22.07
2018-11-06T03:57:38.316Z,21.27
2018-11-06T04:00:09.006Z,22.13
2018-11-06T04:02:37.806Z,22.77
2018-11-06T04:05:06.902Z,25.47
2018-11-06T04:07:35.849Z,27.37
2018-11-06T04:10:05.714Z,26.00
2018-11-06T04:12:34.259Z,27.40
2018-11-06T04:15:04.304Z,25.57
2018-11-06T04:17:32.823Z,24.33
2018-11-06T04:20:01.695Z,24.60
2018-11-06T04:22:30.227Z,25.07
2018-11-06T04:25:01.877Z,22.80
2018-11-06T04:27:30.462Z,22.93
2018-11-06T04:29:59.105Z,24.57
2018-11-06T04:32:27.743Z,24.33
2018-11-06T04:34:57.609Z,25.67
2018-11-06T04:37:27.146Z,25.10
2018-11-06T04:39:56.344Z,25.20
2018-11-06T04:42:25.039Z,23.30
2018-11-06T04:44:53.787Z,22.97
2018-11-06T04:47:23.356Z,22.73
2018-11-06T04:49:51.807Z,23.60
2018-11-06T04:52:20.326Z,23.93
2018-11-06T04:54:48.947Z,27.80
2018-11-06T04:57:17.543Z,26.77
2018-11-06T04:59:46.047Z,25.70
2018-11-06T05:02:14.763Z,26.27
2018-11-06T05:04:43.194Z,28.37
2018-11-06T05:07:11.696Z,28.57
2018-11-06T05:09:40.188Z,30.23
2018-11-06T05:12:08.727Z,30.53
2018-11-06T05:14:37.321Z,28.27
2018-11-06T05:17:05.989Z,28.83
2018-11-06T05:19:34.558Z,28.10
2018-11-06T05:22:03.164Z,26.37
2018-11-06T05:24:31.659Z,25.00
2018-11-06T05:27:00.254Z,23.87
2018-11-06T05:29:28.722Z,23.87
2018-11-06T05:31:57.220Z,25.70
2018-11-06T05:34:25.777Z,25.53
2018-11-06T05:36:54.330Z,25.60
2018-11-06T05:39:22.823Z,26.03
2018-11-06T05:41:51.439Z,23.37
2018-11-06T05:44:19.935Z,22.93
2018-11-06T05:46:48.471Z,22.87
2018-11-06T05:49:17.086Z,24.93
2018-11-06T05:51:45.619Z,23.80
2018-11-06T05:54:14.208Z,24.73
2018-11-06T05:56:42.679Z,23.90
2018-11-06T05:59:11.182Z,23.23
2018-11-06T06:01:39.829Z,23.60
2018-11-06T06:04:08.350Z,24.33
2018-11-06T06:06:36.995Z,23.27
2018-11-06T06:09:07.235Z,25.50
2018-11-06T06:11:35.794Z,25.33
2018-11-06T06:14:04.343Z,24.27
2018-11-06T06:16:32.977Z,26.20
2018-11-06T06:19:01.478Z,25.10
2018-11-06T06:21:30.093Z,26.23
2018-11-06T06:23:58.593Z,25.20
2018-11-06T06:26:27.127Z,25.63
2018-11-06T06:28:55.683Z,26.20
2018-11-06T06:31:24.216Z,23.80
2018-11-06T06:33:52.826Z,26.93
2018-11-06T06:36:21.328Z,30.80
2018-11-06T06:38:49.869Z,27.27
2018-11-06T06:41:18.326Z,27.93
2018-11-06T06:43:46.845Z,26.00
2018-11-06T06:46:15.481Z,26.97
2018-11-06T06:48:44.111Z,25.93
2018-11-06T06:51:12.645Z,27.30
2018-11-06T06:53:41.189Z,26.40
2018-11-06T06:56:09.740Z,27.57
2018-11-06T06:58:38.445Z,27.43
2018-11-06T07:01:07.127Z,27.17
2018-11-06T07:03:35.633Z,27.27
2018-11-06T07:06:04.373Z,25.93
2018-11-06T07:08:32.908Z,24.27
2018-11-06T07:11:01.438Z,21.83
2018-11-06T07:13:30.008Z,23.87
2018-11-06T07:15:59.650Z,20.37
2018-11-06T07:18:28.338Z,19.40
2018-11-06T07:20:56.823Z,20.67
2018-11-06T07:23:25.494Z,20.10
2018-11-06T07:25:54.130Z,18.73
2018-11-06T07:28:22.636Z,16.73
2018-11-06T07:30:51.252Z,19.20
2018-11-06T07:33:19.831Z,17.23
2018-11-06T07:35:48.552Z,17.80
2018-11-06T07:38:16.999Z,17.03
2018-11-06T07:40:45.672Z,17.60
2018-11-06T07:43:14.193Z,17.17
2018-11-06T07:45:42.726Z,17.20
2018-11-06T07:48:11.295Z,18.13
2018-11-06T07:50:39.848Z,17.47
2018-11-06T07:53:08.398Z,18.60
2018-11-06T07:55:36.966Z,18.57
2018-11-06T07:58:05.690Z,19.20
2018-11-06T08:00:34.273Z,19.33
2018-11-06T08:03:02.872Z,19.27
2018-11-06T08:05:31.502Z,18.53
2018-11-06T08:08:00.011Z,19.43
2018-11-06T08:10:28.570Z,18.77
2018-11-06T08:12:57.130Z,18.30
2018-11-06T08:15:25.658Z,16.90
2018-11-06T08:17:54.297Z,16.90
2018-11-06T08:20:22.862Z,16.97
2018-11-06T08:22:51.603Z,17.13
2018-11-06T08:25:20.138Z,16.83
2018-11-06T08:27:48.923Z,17.23
2018-11-06T08:30:17.399Z,17.13
2018-11-06T08:32:46.476Z,16.90
2018-11-06T08:35:15.998Z,18.27
2018-11-06T08:37:44.761Z,16.93
2018-11-06T08:40:14.722Z,16.27
2018-11-06T08:42:43.349Z,16.90
2018-11-06T08:45:13.029Z,15.80
2018-11-06T08:47:42.642Z,15.77
2018-11-06T08:50:12.840Z,15.10
2018-11-06T08:52:41.749Z,15.67
2018-11-06T08:55:11.356Z,16.23
2018-11-06T08:57:40.545Z,15.53
2018-11-06T09:00:11.565Z,16.67
2018-11-06T09:02:40.228Z,15.77
2018-11-06T09:05:10.477Z,15.63
2018-11-06T09:07:39.238Z,14.93
2018-11-06T09:10:08.617Z,14.83
2018-11-06T09:12:37.746Z,15.17
2018-11-06T09:15:08.052Z,14.17
2018-11-06T09:17:36.789Z,14.00
2018-11-06T09:20:05.624Z,14.30
2018-11-06T09:22:34.226Z,13.30
2018-11-06T09:25:02.788Z,13.00
2018-11-06T09:27:31.411Z,12.50
2018-11-06T09:30:00.018Z,12.50
2018-11-06T09:32:28.537Z,12.67
2018-11-06T09:34:57.146Z,12.47
2018-11-06T09:37:25.688Z,11.63
2018-11-06T09:39:54.358Z,11.47
2018-11-06T09:42:22.927Z,10.10
2018-11-06T09:44:51.458Z,11.10
2018-11-06T09:47:20.031Z,10.57
2018-11-06T09:49:48.611Z,11.00
2018-11-06T09:52:17.256Z,11.70
2018-11-06T09:54:45.760Z,11.43
2018-11-06T09:57:14.354Z,12.17
2018-11-06T09:59:42.907Z,11.97
2018-11-06T10:02:11.534Z,12.17
2018-11-06T10:04:40.119Z,12.77
2018-11-06T10:07:09.190Z,10.93
2018-11-06T10:09:37.547Z,12.00
2018-11-06T10:12:06.117Z,15.50
2018-11-06T10:14:34.713Z,14.37
2018-11-06T10:17:03.418Z,16.33
2018-11-06T10:19:32.290Z,15.13
2018-11-06T10:22:00.795Z,14.03
2018-11-06T10:24:29.325Z,15.73
2018-11-06T10:26:58.006Z,14.47
2018-11-06T10:29:26.568Z,14.47
2018-11-06T10:31:55.112Z,14.53
2018-11-06T10:34:23.726Z,15.63
2018-11-06T10:36:52.278Z,15.70
2018-11-06T10:39:20.856Z,14.80
2018-11-06T10:41:49.682Z,14.63
2018-11-06T10:44:18.466Z,15.00
2018-11-06T10:46:47.102Z,14.50
2018-11-06T10:49:15.648Z,14.33
2018-11-06T10:51:44.392Z,13.50
2018-11-06T10:54:12.907Z,12.07
2018-11-06T10:56:41.477Z,11.87
2018-11-06T10:59:10.154Z,12.43
2018-11-06T11:01:44.018Z,10.97
2018-11-06T11:04:17.892Z,11.13
2018-11-06T11:06:46.620Z,11.80
2018-11-06T11:09:15.306Z,11.53
2018-11-06T11:11:43.928Z,11.70
2018-11-06T11:14:12.472Z,11.83
2018-11-06T11:16:41.110Z,13.37
2018-11-06T11:19:09.686Z,14.17
2018-11-06T11:21:38.172Z,13.73
2018-11-06T11:24:06.802Z,13.30
2018-11-06T11:26:35.387Z,12.10
2018-11-06T11:29:04.023Z,12.27
2018-11-06T11:31:32.593Z,12.60
2018-11-06T11:34:01.199Z,11.67
2018-11-06T11:36:29.683Z,11.27
2018-11-06T11:38:58.266Z,11.83
2018-11-06T11:41:26.945Z,11.60
2018-11-06T11:43:55.665Z,11.83
2018-11-06T11:46:24.244Z,11.57
2018-11-06T11:48:52.775Z,11.60
2018-11-06T11:51:21.346Z,11.87
2018-11-06T11:53:49.943Z,11.83
2018-11-06T11:56:18.502Z,12.07
2018-11-06T11:58:47.207Z,12.07
2018-11-06T12:01:15.780Z,12.37
2018-11-06T12:03:44.388Z,11.77
2018-11-06T12:06:12.973Z,12.63
2018-11-06T12:08:41.624Z,11.33
2018-11-06T12:11:10.171Z,12.00
2018-11-06T12:13:38.752Z,11.17
2018-11-06T12:16:07.284Z,12.10
2018-11-06T12:18:36.130Z,11.90
2018-11-06T12:21:05.043Z,11.87
2018-11-06T12:23:33.703Z,11.70
2018-11-06T12:26:02.291Z,11.17
2018-11-06T12:28:30.823Z,11.43
2018-11-06T12:30:59.397Z,10.33
2018-11-06T12:33:28.081Z,10.37
2018-11-06T12:35:56.709Z,9.97
2018-11-06T12:38:25.298Z,10.40
2018-11-06T12:40:53.863Z,11.17
2018-11-06T12:43:22.418Z,11.23
2018-11-06T12:45:50.998Z,11.43
2018-11-06T12:48:19.652Z,11.57
2018-11-06T12:50:48.267Z,10.90
2018-11-06T12:53:16.764Z,11.67
2018-11-06T12:55:45.419Z,11.37
2018-11-06T12:58:13.947Z,10.97
2018-11-06T13:00:42.531Z,11.37
2018-11-06T13:03:11.160Z,11.87
2018-11-06T13:05:39.767Z,12.37
2018-11-06T13:08:08.324Z,13.13
2018-11-06T13:10:36.873Z,13.90
2018-11-06T13:13:05.616Z,13.60
2018-11-06T13:15:34.296Z,12.70
2018-11-06T13:18:02.969Z,13.47
2018-11-06T13:20:31.560Z,13.33
2018-11-06T13:23:00.101Z,13.43
2018-11-06T13:25:28.752Z,13.97
2018-11-06T13:27:57.436Z,15.43
2018-11-06T13:30:26.085Z,14.47
2018-11-06T13:32:54.587Z,14.97
2018-11-06T13:35:23.275Z,14.30
2018-11-06T13:37:51.886Z,14.00
2018-11-06T13:40:20.634Z,13.57
2018-11-06T13:42:49.473Z,13.07
2018-11-06T13:45:19.525Z,15.10
2018-11-06T13:47:48.010Z,16.60
2018-11-06T13:50:16.584Z,17.77
2018-11-06T13:52:45.158Z,16.87
2018-11-06T13:55:14.698Z,16.33
2018-11-06T13:57:43.874Z,16.63
2018-11-06T14:00:14.968Z,15.17
2018-11-06T14:02:43.719Z,13.33
2018-11-06T14:05:12.686Z,13.77
2018-11-06T14:07:41.241Z,13.47
2018-11-06T14:10:09.997Z,14.00
2018-11-06T14:12:38.843Z,13.80
2018-11-06T14:15:07.788Z,14.67
2018-11-06T14:17:36.526Z,13.93
2018-11-06T14:20:06.323Z,14.77
2018-11-06T14:22:34.936Z,14.67
2018-11-06T14:25:03.689Z,17.20
2018-11-06T14:27:32.291Z,17.37
2018-11-06T14:30:00.852Z,16.03
2018-11-06T14:32:29.374Z,17.33
2018-11-06T14:34:57.964Z,17.80
2018-11-06T14:37:26.499Z,17.03
2018-11-06T14:39:55.096Z,15.53
2018-11-06T14:42:23.850Z,14.67
2018-11-06T14:44:53.386Z,14.43
2018-11-06T14:47:22.496Z,14.73
2018-11-06T14:49:51.010Z,15.80
2018-11-06T14:52:19.582Z,15.53
2018-11-06T14:54:48.180Z,16.13
2018-11-06T14:57:16.750Z,15.43
2018-11-06T14:59:45.343Z,15.57
2018-11-06T15:02:14.141Z,16.80
2018-11-06T15:04:42.714Z,16.17
2018-11-06T15:07:11.226Z,18.20
2018-11-06T15:09:39.752Z,23.83
2018-11-06T15:12:08.342Z,31.33
2018-11-06T15:14:36.959Z,39.60
2018-11-06T15:17:05.943Z,27.70
2018-11-06T15:19:34.623Z,20.67
2018-11-06T15:22:03.554Z,18.50
2018-11-06T15:24:32.125Z,20.47
2018-11-06T15:27:00.680Z,20.50
2018-11-06T15:29:29.366Z,21.07
2018-11-06T15:31:57.870Z,21.47
2018-11-06T15:34:26.456Z,21.83
2018-11-06T15:36:55.054Z,22.27
2018-11-06T15:39:23.614Z,24.67
2018-11-06T15:41:52.424Z,37.63
2018-11-06T15:44:20.872Z,35.77
2018-11-06T15:46:49.492Z,38.07
2018-11-06T15:49:18.149Z,33.23
2018-11-06T15:51:46.659Z,38.80
2018-11-06T15:54:15.211Z,34.30
2018-11-06T15:56:43.840Z,46.30
2018-11-06T15:59:12.447Z,60.77
2018-11-06T16:01:41.073Z,70.13
2018-11-06T16:04:09.597Z,97.83
2018-11-06T16:06:38.523Z,67.17
2018-11-06T16:09:07.563Z,50.27
2018-11-06T16:11:36.110Z,35.03
2018-11-06T16:14:04.712Z,37.83
2018-11-06T16:16:33.336Z,36.63
2018-11-06T16:19:02.020Z,36.83
2018-11-06T16:21:31.156Z,34.67
2018-11-06T16:23:59.739Z,32.93
2018-11-06T16:26:28.344Z,34.63
2018-11-06T16:28:56.925Z,44.37
2018-11-06T16:31:25.441Z,54.60
2018-11-06T16:33:53.998Z,49.43
2018-11-06T16:36:22.646Z,53.37
2018-11-06T16:38:51.208Z,47.83
2018-11-06T16:41:19.780Z,35.77
2018-11-06T16:43:48.452Z,34.70
2018-11-06T16:46:17.020Z,31.73
2018-11-06T16:48:45.639Z,34.90
2018-11-06T16:51:14.333Z,31.03
2018-11-06T16:53:42.897Z,34.43
2018-11-06T16:56:11.600Z,35.93
2018-11-06T16:58:40.363Z,40.03
2018-11-06T17:01:09.116Z,41.83
2018-11-06T17:03:37.533Z,36.07
2018-11-06T17:06:09.619Z,32.97
2018-11-06T17:08:38.219Z,31.67
2018-11-06T17:11:06.900Z,30.83
2018-11-06T17:13:35.445Z,32.03
2018-11-06T17:16:04.079Z,35.23
2018-11-06T17:18:32.650Z,37.47
2018-11-06T17:21:01.232Z,32.30
2018-11-06T17:23:29.778Z,31.70
2018-11-06T17:25:58.533Z,30.40
2018-11-06T17:28:27.093Z,33.03
2018-11-06T17:30:55.672Z,31.83
2018-11-06T17:33:24.249Z,31.67
2018-11-06T17:35:52.953Z,26.80
2018-11-06T17:38:21.707Z,24.17
2018-11-06T17:40:50.369Z,23.93
2018-11-06T17:43:18.897Z,25.60
2018-11-06T17:45:47.512Z,31.97
2018-11-06T17:48:16.386Z,38.90
2018-11-06T17:50:45.054Z,44.23
2018-11-06T17:53:13.582Z,50.13
2018-11-06T17:55:42.213Z,60.07
2018-11-06T17:58:10.845Z,54.83
2018-11-06T18:00:39.527Z,55.13
2018-11-06T18:03:08.143Z,52.87
2018-11-06T18:05:36.764Z,51.97
2018-11-06T18:08:05.427Z,65.17
2018-11-06T18:10:34.058Z,73.80
2018-11-06T18:13:02.659Z,84.57
2018-11-06T18:15:31.262Z,74.13
2018-11-06T18:18:00.134Z,69.77
2018-11-06T18:20:30.040Z,66.20
2018-11-06T18:22:58.793Z,57.33
2018-11-06T18:25:27.517Z,51.73
2018-11-06T18:27:57.363Z,50.47
2018-11-06T18:30:26.043Z,49.87
2018-11-06T18:32:54.861Z,53.00
2018-11-06T18:35:23.575Z,56.00
2018-11-06T18:37:52.344Z,55.03
2018-11-06T18:40:21.162Z,51.40
2018-11-06T18:42:50.787Z,50.57
2018-11-06T18:45:19.490Z,48.77
2018-11-06T18:47:48.405Z,53.00
2018-11-06T18:50:18.183Z,52.13
2018-11-06T18:52:48.095Z,52.07
2018-11-06T18:55:17.040Z,55.63
2018-11-06T18:57:45.803Z,57.10
2018-11-06T19:00:16.978Z,57.60
2018-11-06T19:02:46.754Z,59.83
2018-11-06T19:05:16.023Z,66.53
2018-11-06T19:07:44.661Z,65.50
2018-11-06T19:10:14.340Z,53.43
2018-11-06T19:12:43.348Z,52.80
2018-11-06T19:15:15.182Z,60.63
2018-11-06T19:17:44.683Z,51.90
2018-11-06T19:20:14.035Z,51.00
2018-11-06T19:22:42.804Z,59.67
2018-11-06T19:25:12.967Z,61.63
2018-11-06T19:27:41.756Z,68.23
2018-11-06T19:30:13.723Z,53.57
2018-11-06T19:32:43.128Z,41.80
2018-11-06T19:35:11.802Z,39.63
2018-11-06T19:37:41.002Z,38.43
2018-11-06T19:40:12.102Z,38.67
2018-11-06T19:42:41.493Z,42.67
2018-11-06T19:45:12.190Z,39.07
2018-11-06T19:47:40.926Z,42.43
2018-11-06T19:50:11.367Z,43.67
2018-11-06T19:52:40.619Z,43.37
2018-11-06T19:55:10.494Z,41.47
2018-11-06T19:57:39.348Z,43.80
2018-11-06T20:00:17.812Z,46.27
2018-11-06T20:02:47.608Z,55.13
2018-11-06T20:05:16.643Z,56.10
2018-11-06T20:07:45.997Z,56.57
2018-11-06T20:10:16.876Z,54.37
2018-11-06T20:12:46.567Z,54.37
2018-11-06T20:15:15.885Z,56.53
2018-11-06T20:17:45.084Z,57.00
2018-11-06T20:20:18.257Z,62.13
2018-11-06T20:22:47.001Z,104.90
2018-11-06T20:25:15.944Z,74.77
2018-11-06T20:27:45.158Z,57.97
2018-11-06T20:30:16.121Z,53.50
2018-11-06T20:32:44.759Z,60.20
2018-11-06T20:35:13.830Z,58.87
2018-11-06T20:37:42.659Z,57.00
2018-11-06T20:40:15.232Z,54.00
2018-11-06T20:42:44.498Z,54.60
2018-11-06T20:45:14.584Z,49.40
2018-11-06T20:47:43.573Z,53.77
2018-11-06T20:50:15.767Z,55.07
2018-11-06T20:52:44.630Z,52.53
2018-11-06T20:55:14.312Z,52.87
2018-11-06T20:57:42.980Z,52.37
2018-11-06T21:00:20.952Z,51.03
2018-11-06T21:02:51.214Z,51.87
2018-11-06T21:05:19.947Z,52.87
2018-11-06T21:07:48.889Z,57.27
2018-11-06T21:10:19.029Z,53.57
2018-11-06T21:12:47.812Z,62.43
2018-11-06T21:15:16.587Z,56.33
2018-11-06T21:17:45.573Z,49.57
2018-11-06T21:20:15.539Z,79.03
2018-11-06T21:22:44.737Z,85.47
2018-11-06T21:25:13.886Z,58.77
2018-11-06T21:27:43.173Z,62.97
2018-11-06T21:30:16.448Z,48.80
2018-11-06T21:32:46.626Z,42.17
2018-11-06T21:35:16.165Z,42.17
2018-11-06T21:37:46.150Z,41.43
2018-11-06T21:40:16.984Z,41.87
2018-11-06T21:42:46.101Z,40.87
2018-11-06T21:45:15.553Z,42.53
2018-11-06T21:47:45.137Z,42.57
2018-11-06T21:50:14.882Z,44.23
2018-11-06T21:52:43.665Z,41.10
2018-11-06T21:55:13.664Z,40.97
2018-11-06T21:57:42.795Z,42.20
2018-11-06T22:00:14.162Z,41.23
2018-11-06T22:02:43.040Z,42.23
2018-11-06T22:05:13.057Z,42.00
2018-11-06T22:07:45.841Z,73.30
2018-11-06T22:10:16.680Z,93.93
2018-11-06T22:12:45.791Z,84.30
2018-11-06T22:15:15.645Z,71.03
2018-11-06T22:17:44.309Z,82.63
2018-11-06T22:20:13.930Z,75.97
2018-11-06T22:22:43.423Z,71.23
2018-11-06T22:25:12.231Z,53.97
2018-11-06T22:27:40.870Z,50.90
2018-11-06T22:30:11.732Z,51.17
2018-11-06T22:32:41.015Z,50.00
2018-11-06T22:35:11.185Z,63.67
2018-11-06T22:37:40.065Z,68.33
2018-11-06T22:40:11.650Z,58.83
2018-11-06T22:42:40.918Z,53.30
2018-11-06T22:45:11.293Z,43.37
2018-11-06T22:47:39.975Z,39.53
2018-11-06T22:50:10.662Z,40.40
2018-11-06T22:52:39.353Z,40.97
2018-11-06T22:55:08.431Z,38.57
2018-11-06T22:57:37.303Z,36.83
2018-11-06T23:00:11.007Z,37.13
2018-11-06T23:02:39.705Z,36.63
2018-11-06T23:05:08.270Z,35.73
2018-11-06T23:07:42.158Z,34.40
2018-11-06T23:10:10.827Z,34.60
2018-11-06T23:12:39.845Z,34.70
2018-11-06T23:15:08.486Z,34.30
2018-11-06T23:17:37.229Z,34.30
2018-11-06T23:20:06.683Z,33.93
2018-11-06T23:22:35.263Z,34.00
2018-11-06T23:25:03.915Z,35.00
2018-11-06T23:27:32.576Z,40.73
2018-11-06T23:30:01.110Z,61.90
2018-11-06T23:32:29.613Z,58.20
2018-11-06T23:34:58.201Z,73.23
2018-11-06T23:37:26.771Z,77.27
2018-11-06T23:39:55.292Z,72.87
2018-11-06T23:42:23.973Z,60.97
2018-11-06T23:44:52.615Z,53.17
2018-11-06T23:47:21.110Z,45.43
2018-11-06T23:49:49.774Z,35.97
2018-11-06T23:52:18.425Z,35.10
2018-11-06T23:54:47.804Z,34.93
2018-11-06T23:57:16.450Z,34.80
2018-11-06T23:59:45.785Z,34.13
